createdAt,value
2017-11-21T00:00:57.006Z,99912.13
2017-11-21T00:03:24.514Z,99920.94
2017-11-21T00:05:52.341Z,99908.85
2017-11-21T00:08:19.881Z,99904.27
2017-11-21T00:10:47.387Z,99893.88
2017-11-21T00:13:14.946Z,99893.63
2017-11-21T00:15:42.569Z,99873.92
2017-11-21T00:18:10.379Z,99875.89
2017-11-21T00:20:37.968Z,99871.73
2017-11-21T00:23:05.619Z,99865.26
2017-11-21T00:25:33.151Z,99865.94
2017-11-21T00:28:00.686Z,99865.53
2017-11-21T00:30:28.377Z,99866.22
2017-11-21T00:32:55.953Z,99865.92
2017-11-21T00:35:23.439Z,99874.87
2017-11-21T00:37:51.001Z,99874.77
2017-11-21T00:51:53.541Z,99877.50
2017-11-21T00:54:21.034Z,99877.78
2017-11-21T00:56:48.566Z,99877.20
2017-11-21T00:59:16.099Z,99865.55
2017-11-21T01:01:43.638Z,99858.46
2017-11-21T01:04:11.136Z,99861.61
2017-11-21T01:06:38.699Z,99857.65
2017-11-21T01:09:06.333Z,99853.53
2017-11-21T01:11:33.878Z,99854.72
2017-11-21T01:14:01.397Z,99856.98
2017-11-21T01:16:28.945Z,99850.00
2017-11-21T01:18:56.369Z,99846.05
2017-11-21T01:21:23.875Z,99845.38
2017-11-21T01:23:51.362Z,99847.63
2017-11-21T01:26:18.833Z,99840.23
2017-11-21T01:28:46.334Z,99842.99
2017-11-21T01:31:18.846Z,99838.27
2017-11-21T01:33:46.262Z,99839.32
2017-11-21T01:36:13.864Z,99834.33
2017-11-21T01:38:42.149Z,99833.69
2017-11-21T01:41:09.701Z,99833.69
2017-11-21T01:43:37.206Z,99834.37
2017-11-21T01:46:04.723Z,99830.41
2017-11-21T01:48:32.178Z,99830.41
2017-11-21T01:50:59.634Z,99832.14
2017-11-21T01:53:27.132Z,99824.14
2017-11-21T01:55:54.626Z,99822.69
2017-11-21T01:58:22.704Z,99822.14
2017-11-21T02:00:50.153Z,99821.62
2017-11-21T02:03:17.952Z,99816.22
2017-11-21T02:05:46.538Z,99810.44
2017-11-21T02:08:14.798Z,99805.18
2017-11-21T02:10:42.255Z,99812.16
2017-11-21T02:13:09.876Z,99805.84
2017-11-21T02:15:37.303Z,99807.41
2017-11-21T02:18:04.821Z,99798.05
2017-11-21T02:20:32.272Z,99800.83
2017-11-21T02:22:59.879Z,99802.58
2017-11-21T02:25:27.412Z,99794.02
2017-11-21T02:27:54.980Z,99800.86
2017-11-21T02:30:22.428Z,99795.08
2017-11-21T02:32:49.925Z,99793.20
2017-11-21T02:35:17.420Z,99789.41
2017-11-21T02:37:44.921Z,99793.22
2017-11-21T02:40:36.097Z,99793.37
2017-11-21T02:43:04.849Z,99794.97
2017-11-21T02:45:32.358Z,99785.50
2017-11-21T02:47:59.868Z,99782.73
2017-11-21T02:50:27.350Z,99785.23
2017-11-21T02:52:54.876Z,99784.33
2017-11-21T02:55:22.638Z,99777.62
2017-11-21T02:57:50.319Z,99779.86
2017-11-21T03:00:22.833Z,99782.89
2017-11-21T03:02:50.286Z,99779.09
2017-11-21T03:05:17.770Z,99771.34
2017-11-21T03:07:45.291Z,99771.63
2017-11-21T03:10:17.744Z,99769.11
2017-11-21T03:12:45.232Z,99762.80
2017-11-21T03:15:12.702Z,99769.23
2017-11-21T03:17:40.562Z,99763.97
2017-11-21T03:20:08.039Z,99765.97
2017-11-21T03:22:47.373Z,99761.49
2017-11-21T03:25:26.886Z,99763.36
2017-11-21T03:28:04.349Z,99762.03
2017-11-21T03:30:31.816Z,99759.67
2017-11-21T03:32:59.300Z,99751.52
2017-11-21T03:35:26.889Z,99763.48
2017-11-21T03:37:54.392Z,99764.80
2017-11-21T03:40:21.871Z,99761.00
2017-11-21T03:42:49.399Z,99763.37
2017-11-21T03:45:16.854Z,99764.41
2017-11-21T03:47:44.365Z,99764.28
2017-11-21T03:50:11.869Z,99755.59
2017-11-21T03:52:39.589Z,99766.52
2017-11-21T03:55:07.134Z,99763.38
2017-11-21T03:57:35.577Z,99764.55
2017-11-21T04:00:03.173Z,99761.38
2017-11-21T04:02:31.472Z,99757.45
2017-11-21T04:04:58.959Z,99761.94
2017-11-21T04:07:26.863Z,99754.81
2017-11-21T04:09:54.327Z,99747.86
2017-11-21T04:12:22.798Z,99739.28
2017-11-21T04:14:50.565Z,99733.89
2017-11-21T04:17:18.202Z,99734.03
2017-11-21T04:19:45.649Z,99733.63
2017-11-21T04:22:13.321Z,99746.56
2017-11-21T04:24:41.869Z,99748.13
2017-11-21T04:27:09.469Z,99746.72
2017-11-21T04:29:37.041Z,99748.71
2017-11-21T04:32:04.568Z,99744.50
2017-11-21T04:34:32.126Z,99744.23
2017-11-21T04:36:59.615Z,99747.02
2017-11-21T04:39:27.305Z,99740.16
2017-11-21T04:42:04.400Z,99737.02
2017-11-21T04:44:31.853Z,99736.34
2017-11-21T04:46:59.402Z,99739.12
2017-11-21T04:49:26.938Z,99730.71
2017-11-21T04:52:18.356Z,99731.23
2017-11-21T04:54:46.326Z,99735.45
2017-11-21T04:57:13.856Z,99734.67
2017-11-21T04:59:42.494Z,99731.64
2017-11-21T05:02:10.951Z,99725.19
2017-11-21T05:04:38.740Z,99728.20
2017-11-21T05:07:06.243Z,99729.28
2017-11-21T05:09:34.187Z,99716.63
2017-11-21T05:12:01.650Z,99720.84
2017-11-21T05:14:29.127Z,99724.02
2017-11-21T05:16:56.567Z,99720.06
2017-11-21T05:19:24.346Z,99727.31
2017-11-21T05:21:51.838Z,99723.50
2017-11-21T05:24:19.388Z,99722.31
2017-11-21T05:26:46.901Z,99716.38
2017-11-21T05:29:14.335Z,99717.70
2017-11-21T05:31:41.988Z,99716.52
2017-11-21T05:34:09.502Z,99716.92
2017-11-21T05:36:37.243Z,99712.97
2017-11-21T05:39:05.066Z,99708.62
2017-11-21T05:41:33.617Z,99710.98
2017-11-21T05:44:01.103Z,99707.98
2017-11-21T05:46:28.833Z,99711.39
2017-11-21T05:48:57.252Z,99716.67
2017-11-21T05:51:24.969Z,99718.77
2017-11-21T05:53:52.417Z,99714.82
2017-11-21T05:56:19.894Z,99720.36
2017-11-21T05:58:47.400Z,99718.67
2017-11-21T06:01:14.933Z,99718.53
2017-11-21T06:03:42.442Z,99717.73
2017-11-21T06:06:09.899Z,99728.01
2017-11-21T06:08:37.338Z,99726.18
2017-11-21T06:11:04.994Z,99720.91
2017-11-21T06:13:32.469Z,99724.33
2017-11-21T06:15:59.991Z,99725.38
2017-11-21T06:18:27.487Z,99727.09
2017-11-21T06:21:00.122Z,99726.82
2017-11-21T06:23:27.567Z,99729.59
2017-11-21T06:25:55.007Z,99731.45
2017-11-21T06:28:22.479Z,99730.77
2017-11-21T06:30:50.061Z,99723.75
2017-11-21T06:33:17.655Z,99732.20
2017-11-21T06:35:45.211Z,99730.88
2017-11-21T06:38:12.769Z,99734.14
2017-11-21T06:40:40.211Z,99735.73
2017-11-21T06:43:07.752Z,99746.55
2017-11-21T06:45:35.296Z,99743.63
2017-11-21T06:48:02.755Z,99738.20
2017-11-21T06:50:30.316Z,99745.34
2017-11-21T06:52:57.938Z,99747.56
2017-11-21T06:55:25.381Z,99740.95
2017-11-21T06:57:52.850Z,99749.50
2017-11-21T07:00:20.291Z,99751.08
2017-11-21T07:02:47.829Z,99753.98
2017-11-21T07:05:15.262Z,99759.25
2017-11-21T07:07:42.786Z,99760.02
2017-11-21T07:10:10.697Z,99763.73
2017-11-21T07:12:38.153Z,99768.06
2017-11-21T07:15:05.711Z,99762.41
2017-11-21T07:17:33.257Z,99765.28
2017-11-21T07:20:00.835Z,99763.30
2017-11-21T07:22:28.588Z,99768.41
2017-11-21T07:24:56.059Z,99774.98
2017-11-21T07:27:23.664Z,99766.91
2017-11-21T07:29:51.153Z,99769.67
2017-11-21T07:32:18.638Z,99768.98
2017-11-21T07:34:46.272Z,99771.73
2017-11-21T07:37:13.883Z,99770.68
2017-11-21T07:39:41.438Z,99774.91
2017-11-21T07:42:08.956Z,99775.80
2017-11-21T07:44:36.532Z,99775.13
2017-11-21T07:47:04.072Z,99774.60
2017-11-21T07:49:31.668Z,99776.94
2017-11-21T07:51:59.217Z,99786.04
2017-11-21T07:54:26.803Z,99780.43
2017-11-21T07:56:54.550Z,99788.33
2017-11-21T07:59:22.101Z,99783.82
2017-11-21T08:01:49.732Z,99783.52
2017-11-21T08:04:17.188Z,99788.14
2017-11-21T08:06:44.664Z,99789.11
2017-11-21T08:09:12.225Z,99794.12
2017-11-21T08:11:39.698Z,99793.19
2017-11-21T08:14:07.199Z,99794.70
2017-11-21T08:16:34.741Z,99787.19
2017-11-21T08:19:02.206Z,99791.00
2017-11-21T08:21:29.899Z,99799.34
2017-11-21T08:23:57.567Z,99794.17
2017-11-21T08:26:25.201Z,99796.98
2017-11-21T08:28:53.087Z,99801.59
2017-11-21T08:31:20.625Z,99804.88
2017-11-21T08:33:48.105Z,99808.30
2017-11-21T08:36:15.560Z,99811.84
2017-11-21T08:38:43.119Z,99812.33
2017-11-21T08:41:10.733Z,99815.86
2017-11-21T08:43:38.725Z,99818.19
2017-11-21T08:46:06.143Z,99816.72
2017-11-21T08:48:33.784Z,99813.31
2017-11-21T08:53:53.878Z,99815.98
2017-11-21T08:56:21.430Z,99810.91
2017-11-21T08:58:48.989Z,99813.00
2017-11-21T09:01:16.565Z,99812.48
2017-11-21T09:03:44.137Z,99813.47
2017-11-21T09:06:11.712Z,99811.58
2017-11-21T09:08:39.244Z,99816.28
2017-11-21T09:11:30.566Z,99816.17
2017-11-21T09:13:58.132Z,99814.02
2017-11-21T09:16:25.734Z,99804.70
2017-11-21T09:18:53.259Z,99817.97
2017-11-21T09:21:20.782Z,99822.04
2017-11-21T09:23:48.254Z,99825.59
2017-11-21T09:26:15.807Z,99827.27
2017-11-21T09:28:43.357Z,99831.34
2017-11-21T09:31:10.882Z,99833.97
2017-11-21T09:33:38.437Z,99836.62
2017-11-21T09:36:06.181Z,99845.56
2017-11-21T09:38:33.647Z,99842.53
2017-11-21T09:41:01.171Z,99843.41
2017-11-21T09:43:28.763Z,99845.20
2017-11-21T09:45:56.323Z,99842.53
2017-11-21T09:48:24.866Z,99837.64
2017-11-21T09:50:52.362Z,99846.08
2017-11-21T09:53:19.816Z,99841.13
2017-11-21T09:55:47.335Z,99836.62
2017-11-21T09:58:14.904Z,99833.45
2017-11-21T10:00:42.493Z,99836.47
2017-11-21T10:03:10.060Z,99839.47
2017-11-21T10:05:37.681Z,99843.56
2017-11-21T10:08:05.234Z,99845.84
2017-11-21T10:10:32.717Z,99842.27
2017-11-21T10:13:00.284Z,99837.81
2017-11-21T10:15:27.895Z,99842.39
2017-11-21T10:17:55.629Z,99845.66
2017-11-21T10:20:28.176Z,99843.27
2017-11-21T10:22:55.771Z,99842.98
2017-11-21T10:25:23.281Z,99833.16
2017-11-21T10:27:50.742Z,99844.59
2017-11-21T10:30:18.241Z,99846.41
2017-11-21T10:32:45.674Z,99841.45
2017-11-21T10:35:13.205Z,99844.12
2017-11-21T10:37:40.690Z,99851.05
2017-11-21T10:40:08.168Z,99844.59
2017-11-21T10:42:37.148Z,99838.63
2017-11-21T10:45:04.665Z,99841.68
2017-11-21T10:47:32.178Z,99843.70
2017-11-21T10:50:00.033Z,99832.31
2017-11-21T10:52:27.480Z,99833.89
2017-11-21T10:54:55.008Z,99830.47
2017-11-21T10:57:22.492Z,99827.55
2017-11-21T10:59:49.998Z,99834.09
2017-11-21T11:02:17.509Z,99829.28
2017-11-21T11:04:45.050Z,99822.46
2017-11-21T11:07:12.606Z,99817.94
2017-11-21T11:09:40.142Z,99820.41
2017-11-21T11:12:07.626Z,99815.83
2017-11-21T11:14:35.094Z,99823.38
2017-11-21T11:17:02.645Z,99820.09
2017-11-21T11:19:30.297Z,99817.67
2017-11-21T11:21:57.997Z,99826.00
2017-11-21T11:24:25.493Z,99827.39
2017-11-21T11:26:53.015Z,99818.20
2017-11-21T11:29:20.504Z,99820.30
2017-11-21T11:31:48.147Z,99811.94
2017-11-21T11:34:15.618Z,99811.65
2017-11-21T11:36:43.179Z,99810.00
2017-11-21T11:39:10.800Z,99803.75
2017-11-21T11:41:38.332Z,99807.92
2017-11-21T11:44:05.823Z,99811.84
2017-11-21T11:46:33.306Z,99809.95
2017-11-21T11:49:00.763Z,99809.64
2017-11-21T11:51:37.889Z,99810.64
2017-11-21T11:54:06.308Z,99817.16
2017-11-21T11:56:33.914Z,99814.66
2017-11-21T11:59:01.441Z,99811.74
2017-11-21T12:01:29.021Z,99803.08
2017-11-21T12:03:56.565Z,99798.84
2017-11-21T12:06:24.198Z,99800.36
2017-11-21T12:08:51.678Z,99795.72
2017-11-21T12:11:19.669Z,99799.44
2017-11-21T12:13:47.263Z,99795.86
2017-11-21T12:16:14.895Z,99794.21
2017-11-21T12:18:42.340Z,99799.19
2017-11-21T12:21:09.930Z,99804.20
2017-11-21T12:23:38.697Z,99799.33
2017-11-21T12:26:06.492Z,99796.67
2017-11-21T12:28:34.057Z,99795.91
2017-11-21T12:31:06.589Z,99802.83
2017-11-21T12:33:34.343Z,99794.42
2017-11-21T12:36:02.673Z,99794.61
2017-11-21T12:38:30.194Z,99795.47
2017-11-21T12:40:58.065Z,99796.32
2017-11-21T12:43:29.668Z,99790.09
2017-11-21T12:45:57.405Z,99787.58
2017-11-21T12:48:27.134Z,99782.39
2017-11-21T12:50:54.692Z,99781.94
2017-11-21T12:53:22.422Z,99787.98
2017-11-21T12:55:50.039Z,99788.28
2017-11-21T12:58:17.519Z,99795.95
2017-11-21T13:00:45.019Z,99791.86
2017-11-21T13:03:12.773Z,99798.27
2017-11-21T13:05:40.373Z,99796.13
2017-11-21T13:08:07.948Z,99796.50
2017-11-21T13:10:35.542Z,99793.70
2017-11-21T13:13:03.077Z,99787.91
2017-11-21T13:15:30.611Z,99782.46
2017-11-21T13:17:58.114Z,99782.90
2017-11-21T13:20:25.632Z,99787.06
2017-11-21T13:22:53.108Z,99792.96
2017-11-21T13:25:20.687Z,99794.98
2017-11-21T13:27:48.235Z,99789.39
2017-11-21T13:30:15.785Z,99800.11
2017-11-21T13:32:43.366Z,99795.17
2017-11-21T13:35:10.900Z,99791.56
2017-11-21T13:37:38.439Z,99798.60
2017-11-21T13:40:10.987Z,99795.58
2017-11-21T13:42:38.493Z,99808.17
2017-11-21T13:45:06.209Z,99810.83
2017-11-21T13:47:33.902Z,99803.13
2017-11-21T13:50:01.470Z,99802.24
2017-11-21T13:52:28.995Z,99804.81
2017-11-21T13:54:56.519Z,99806.58
2017-11-21T13:57:24.119Z,99805.66
2017-11-21T13:59:52.231Z,99803.66
2017-11-21T14:02:19.970Z,99808.75
2017-11-21T14:04:47.557Z,99804.33
2017-11-21T14:07:15.196Z,99803.96
2017-11-21T14:09:42.769Z,99799.61
2017-11-21T14:12:34.403Z,99797.98
2017-11-21T14:15:01.925Z,99793.81
2017-11-21T14:17:29.441Z,99800.56
2017-11-21T14:19:56.970Z,99795.11
2017-11-21T14:22:24.713Z,99804.66
2017-11-21T14:24:52.169Z,99798.86
2017-11-21T14:27:19.662Z,99802.13
2017-11-21T14:29:47.111Z,99797.89
2017-11-21T14:32:17.363Z,99798.73
2017-11-21T14:34:45.001Z,99796.92
2017-11-21T14:37:12.581Z,99786.86
2017-11-21T14:39:40.423Z,99795.08
2017-11-21T14:42:17.599Z,99787.70
2017-11-21T14:44:45.142Z,99792.97
2017-11-21T14:47:12.638Z,99793.11
2017-11-21T14:49:40.234Z,99791.94
2017-11-21T14:52:07.831Z,99796.06
2017-11-21T14:54:35.393Z,99791.67
2017-11-21T14:57:02.849Z,99794.77
2017-11-21T14:59:30.815Z,99796.23
2017-11-21T15:01:59.048Z,99797.27
2017-11-21T15:04:26.622Z,99789.83
2017-11-21T15:06:54.111Z,99795.02
2017-11-21T15:09:21.576Z,99797.94
2017-11-21T15:11:49.046Z,99789.66
2017-11-21T15:14:16.641Z,99798.68
2017-11-21T15:16:44.209Z,99794.01
2017-11-21T15:19:11.730Z,99792.05
2017-11-21T15:21:39.285Z,99793.52
2017-11-21T15:24:06.825Z,99796.92
2017-11-21T15:26:34.455Z,99793.38
2017-11-21T15:29:02.092Z,99788.63
2017-11-21T15:31:29.632Z,99793.92
2017-11-21T15:33:57.148Z,99783.17
2017-11-21T15:36:24.715Z,99783.98
2017-11-21T15:38:52.270Z,99783.72
2017-11-21T15:41:19.753Z,99790.75
2017-11-21T15:43:47.420Z,99792.22
2017-11-21T15:46:15.314Z,99791.42
2017-11-21T15:48:43.471Z,99792.42
2017-11-21T15:51:11.035Z,99787.64
2017-11-21T15:53:38.709Z,99789.77
2017-11-21T15:56:06.148Z,99784.12
2017-11-21T15:58:33.611Z,99791.24
2017-11-21T16:01:01.107Z,99786.09
2017-11-21T16:03:29.635Z,99789.40
2017-11-21T16:05:58.512Z,99789.25
2017-11-21T16:08:27.123Z,99796.41
2017-11-21T16:10:54.873Z,99796.52
2017-11-21T16:13:22.372Z,99795.63
2017-11-21T16:15:49.990Z,99794.13
2017-11-21T16:18:17.460Z,99799.28
2017-11-21T16:20:44.952Z,99796.41
2017-11-21T16:23:12.456Z,99803.44
2017-11-21T16:25:40.040Z,99799.72
2017-11-21T16:28:07.529Z,99798.53
2017-11-21T16:30:35.218Z,99790.95
2017-11-21T16:33:02.699Z,99786.86
2017-11-21T16:35:30.314Z,99785.80
2017-11-21T16:37:57.896Z,99780.95
2017-11-21T16:40:25.410Z,99789.83
2017-11-21T16:42:52.924Z,99787.98
2017-11-21T16:45:20.523Z,99785.74
2017-11-21T16:47:48.033Z,99787.94
2017-11-21T16:50:15.498Z,99778.95
2017-11-21T16:52:42.977Z,99781.05
2017-11-21T16:55:10.598Z,99779.58
2017-11-21T16:57:38.101Z,99783.17
2017-11-21T17:00:06.154Z,99787.67
2017-11-21T17:02:33.648Z,99778.17
2017-11-21T17:05:01.099Z,99783.33
2017-11-21T17:07:28.622Z,99785.91
2017-11-21T17:09:56.921Z,99785.57
2017-11-21T17:12:24.604Z,99789.69
2017-11-21T17:14:52.202Z,99793.53
2017-11-21T17:17:19.770Z,99789.58
2017-11-21T17:19:47.304Z,99791.66
2017-11-21T17:22:14.778Z,99791.91
2017-11-21T17:24:42.406Z,99793.13
2017-11-21T17:27:10.040Z,99789.41
2017-11-21T17:29:38.003Z,99791.10
2017-11-21T17:32:32.046Z,99781.08
2017-11-21T17:34:59.878Z,99785.75
2017-11-21T17:37:27.393Z,99784.42
2017-11-21T17:39:54.972Z,99783.12
2017-11-21T17:42:22.853Z,99783.50
2017-11-21T17:44:50.392Z,99782.87
2017-11-21T17:47:18.056Z,99783.53
2017-11-21T17:49:45.614Z,99783.53
2017-11-21T17:52:13.180Z,99782.46
2017-11-21T17:54:40.945Z,99786.17
2017-11-21T17:57:08.405Z,99785.00
2017-11-21T17:59:36.325Z,99788.45
2017-11-21T18:02:04.851Z,99782.20
2017-11-21T18:04:32.411Z,99785.38
2017-11-21T18:06:59.995Z,99781.72
2017-11-21T18:09:27.567Z,99771.26
2017-11-21T18:11:55.101Z,99776.01
2017-11-21T18:14:22.598Z,99778.11
2017-11-21T18:16:50.187Z,99775.75
2017-11-21T18:19:17.719Z,99772.17
2017-11-21T18:21:59.616Z,99776.56
2017-11-21T18:24:27.128Z,99776.33
2017-11-21T18:26:54.663Z,99773.41
2017-11-21T18:29:22.291Z,99772.86
2017-11-21T18:31:49.776Z,99780.45
2017-11-21T18:34:17.300Z,99771.05
2017-11-21T18:36:44.868Z,99776.98
2017-11-21T18:39:12.581Z,99773.30
2017-11-21T18:41:40.195Z,99776.98
2017-11-21T18:44:07.758Z,99775.03
2017-11-21T18:46:35.623Z,99778.45
2017-11-21T18:49:03.184Z,99776.61
2017-11-21T18:51:30.806Z,99773.56
2017-11-21T18:53:58.315Z,99771.57
2017-11-21T18:56:25.922Z,99771.95
2017-11-21T18:58:53.416Z,99775.41
2017-11-21T19:01:26.165Z,99775.41
2017-11-21T19:03:53.758Z,99775.52
2017-11-21T19:06:22.146Z,99773.79
2017-11-21T19:08:49.702Z,99770.33
2017-11-21T19:11:26.955Z,99761.86
2017-11-21T19:13:54.929Z,99766.09
2017-11-21T19:16:23.649Z,99758.89
2017-11-21T19:18:51.310Z,99756.53
2017-11-21T19:21:19.186Z,99749.79
2017-11-21T19:23:46.696Z,99747.11
2017-11-21T19:26:14.239Z,99740.63
2017-11-21T19:28:41.903Z,99732.39
2017-11-21T19:31:09.475Z,99731.58
2017-11-21T19:33:37.018Z,99727.71
2017-11-21T19:36:04.690Z,99725.50
2017-11-21T19:38:32.424Z,99732.98
2017-11-21T19:41:00.010Z,99738.95
2017-11-21T19:43:27.533Z,99741.75
2017-11-21T19:45:55.087Z,99754.42
2017-11-21T19:48:22.749Z,99743.41
2017-11-21T19:50:50.320Z,99746.73
2017-11-21T19:53:17.959Z,99740.21
2017-11-21T19:55:45.662Z,99740.98
2017-11-21T19:58:13.269Z,99746.88
2017-11-21T20:00:40.866Z,99750.78
2017-11-21T20:03:08.405Z,99745.48
2017-11-21T20:05:35.992Z,99742.54
2017-11-21T20:08:03.580Z,99749.39
2017-11-21T20:10:31.218Z,99737.06
2017-11-21T20:12:58.837Z,99733.56
2017-11-21T20:15:26.367Z,99733.45
2017-11-21T20:17:53.883Z,99731.84
2017-11-21T20:20:21.402Z,99731.43
2017-11-21T20:22:48.893Z,99727.19
2017-11-21T20:25:16.481Z,99720.94
2017-11-21T20:27:44.267Z,99722.66
2017-11-21T20:30:12.065Z,99729.55
2017-11-21T20:32:39.720Z,99733.38
2017-11-21T20:35:07.284Z,99729.52
2017-11-21T20:37:35.190Z,99726.42
2017-11-21T20:40:02.807Z,99728.94
2017-11-21T20:42:30.519Z,99734.90
2017-11-21T20:44:58.035Z,99735.64
2017-11-21T20:47:26.182Z,99742.78
2017-11-21T20:49:53.810Z,99737.19
2017-11-21T20:52:21.419Z,99741.39
2017-11-21T20:54:50.043Z,99744.16
2017-11-21T20:57:17.690Z,99751.45
2017-11-21T20:59:45.332Z,99753.22
2017-11-21T21:02:36.566Z,99758.23
2017-11-21T21:05:04.224Z,99758.23
2017-11-21T21:07:31.877Z,99755.43
2017-11-21T21:10:00.755Z,99752.38
2017-11-21T21:12:28.752Z,99755.58
2017-11-21T21:14:56.310Z,99761.03
2017-11-21T21:17:23.778Z,99747.47
2017-11-21T21:19:51.495Z,99746.47
2017-11-21T21:22:23.965Z,99754.58
2017-11-21T21:24:51.572Z,99755.53
2017-11-21T21:27:31.019Z,99753.22
2017-11-21T21:29:58.686Z,99763.31
2017-11-21T21:32:26.231Z,99760.95
2017-11-21T21:34:54.566Z,99750.34
2017-11-21T21:37:22.160Z,99760.70
2017-11-21T21:39:49.725Z,99758.81
2017-11-21T21:42:17.374Z,99754.84
2017-11-21T21:44:45.008Z,99757.64
2017-11-21T21:47:12.512Z,99761.73
2017-11-21T21:49:40.398Z,99761.32
2017-11-21T21:52:08.005Z,99761.24
2017-11-21T21:54:35.638Z,99771.34
2017-11-21T21:57:03.209Z,99770.20
2017-11-21T21:59:30.836Z,99774.84
2017-11-21T22:01:59.324Z,99782.69
2017-11-21T22:04:26.929Z,99782.42
2017-11-21T22:06:54.591Z,99784.97
2017-11-21T22:09:22.040Z,99777.67
2017-11-21T22:17:34.913Z,99790.36
2017-11-21T22:20:02.360Z,99788.37
2017-11-21T22:22:30.005Z,99787.96
2017-11-21T22:24:57.739Z,99789.44
2017-11-21T22:27:25.288Z,99791.97
2017-11-21T22:29:53.866Z,99796.61
2017-11-21T22:32:21.607Z,99787.70
2017-11-21T22:34:49.342Z,99788.73
2017-11-21T22:37:16.967Z,99792.54
2017-11-21T22:39:44.561Z,99790.77
2017-11-21T22:42:12.191Z,99795.19
2017-11-21T22:44:39.985Z,99776.77
2017-11-21T22:47:07.601Z,99781.55
2017-11-21T22:49:35.230Z,99795.85
2017-11-21T22:52:03.181Z,99798.83
2017-11-21T22:54:30.768Z,99801.08
2017-11-21T22:56:59.462Z,99799.61
2017-11-21T22:59:27.415Z,99801.27
2017-11-21T23:01:54.895Z,99791.62
2017-11-21T23:04:22.501Z,99802.34
2017-11-21T23:06:49.988Z,99802.41
2017-11-21T23:09:17.542Z,99803.73
2017-11-21T23:11:45.014Z,99800.64
2017-11-21T23:14:12.539Z,99804.51
2017-11-21T23:16:40.166Z,99798.83
2017-11-21T23:19:07.733Z,99801.45
2017-11-21T23:21:35.273Z,99792.42
2017-11-21T23:24:02.808Z,99793.34
2017-11-21T23:26:30.635Z,99793.72
2017-11-21T23:28:58.136Z,99803.41
2017-11-21T23:31:25.732Z,99800.35
2017-11-21T23:33:53.304Z,99798.22
2017-11-21T23:36:20.783Z,99795.05
2017-11-21T23:38:48.276Z,99788.67
2017-11-21T23:41:16.089Z,99779.76
2017-11-21T23:43:43.648Z,99787.68
2017-11-21T23:46:11.148Z,99781.81
2017-11-21T23:48:38.727Z,99783.25
2017-11-21T23:51:06.584Z,99772.09
2017-11-21T23:53:34.201Z,99777.07
2017-11-21T23:56:01.927Z,99779.50
2017-11-21T23:58:30.185Z,99777.51
